createdAt,value
2023-04-03T00:02:48.168Z,4.9
2023-04-03T00:08:39.608Z,4.4
2023-04-03T00:14:30.706Z,4.3
2023-04-03T00:20:22.938Z,3.9
2023-04-03T00:26:14.447Z,3.9
2023-04-03T00:32:06.112Z,3.5
2023-04-03T00:37:42.966Z,3.4
2023-04-03T00:43:34.500Z,3.5
2023-04-03T00:49:10.935Z,3.5
2023-04-03T00:54:46.396Z,3.4
2023-04-03T01:00:37.867Z,3.6
2023-04-03T01:06:30.492Z,3.5
2023-04-03T01:12:22.004Z,3.2
2023-04-03T01:18:13.870Z,3.4
2023-04-03T01:24:04.589Z,3.7
2023-04-03T01:29:56.212Z,3.9
2023-04-03T01:35:47.890Z,3.9
2023-04-03T01:41:39.109Z,4.1
2023-04-03T01:47:30.189Z,4.1
2023-04-03T01:53:22.059Z,3.8
2023-04-03T01:59:13.305Z,4.1
2023-04-03T02:05:05.441Z,3.9
2023-04-03T02:10:59.250Z,3.8
2023-04-03T02:16:50.999Z,3.9
2023-04-03T02:22:42.211Z,3.8
2023-04-03T02:28:33.274Z,3.9
2023-04-03T02:34:09.139Z,3.8
2023-04-03T02:40:00.624Z,3.4
2023-04-03T02:45:52.245Z,3.1
2023-04-03T02:51:44.278Z,3.4
2023-04-03T02:57:35.554Z,3.9
2023-04-03T03:03:29.238Z,3.8
2023-04-03T03:09:05.211Z,3.4
2023-04-03T03:14:56.319Z,3.1
2023-04-03T03:20:48.430Z,2.9
2023-04-03T03:26:39.464Z,2.8
2023-04-03T03:32:30.892Z,3.1
2023-04-03T03:38:22.594Z,2.7
2023-04-03T03:44:15.425Z,2.6
2023-04-03T03:49:52.454Z,2.6
2023-04-03T03:55:28.590Z,2.3
2023-04-03T04:01:19.693Z,2
2023-04-03T04:07:13.445Z,2.1
2023-04-03T04:13:04.368Z,2.3
2023-04-03T04:18:40.379Z,2.1
2023-04-03T04:24:15.612Z,2.1
2023-04-03T04:30:06.869Z,2.1
2023-04-03T04:35:58.193Z,1.8
2023-04-03T04:41:49.885Z,1.5
2023-04-03T04:47:41.408Z,1.8
2023-04-03T04:53:42.075Z,2.1
2023-04-03T04:59:34.341Z,2.1
2023-04-03T05:05:27.097Z,2.5
2023-04-03T05:11:03.415Z,2.8
2023-04-03T05:16:54.206Z,2.9
2023-04-03T05:22:45.917Z,3.1
2023-04-03T05:28:36.913Z,3.7
2023-04-03T05:34:30.420Z,4
2023-04-03T05:40:24.348Z,4.1
2023-04-03T05:46:18.229Z,4.1
2023-04-03T05:52:09.852Z,4.3
2023-04-03T05:58:02.708Z,4.5
2023-04-03T06:03:56.909Z,4.7
2023-04-03T06:09:49.904Z,4.9
2023-04-03T06:15:42.159Z,5.4
2023-04-03T06:21:33.552Z,5.6
2023-04-03T06:27:24.767Z,5.7
2023-04-03T06:33:16.574Z,5.8
2023-04-03T06:39:10.616Z,6.2
2023-04-03T06:45:03.166Z,6.4
2023-04-03T06:50:55.127Z,6.8
2023-04-03T06:56:47.704Z,6.4
2023-04-03T07:02:40.775Z,6.2
2023-04-03T07:08:32.847Z,6.5
2023-04-03T07:14:23.905Z,7
2023-04-03T07:20:15.668Z,7.6
2023-04-03T07:26:13.830Z,8.3
2023-04-03T07:32:05.215Z,8.6
2023-04-03T07:37:57.432Z,9.1
2023-04-03T07:43:48.727Z,9.9
2023-04-03T07:49:40.555Z,10.8
2023-04-03T07:55:16.289Z,10.7
2023-04-03T08:00:54.839Z,10.6
2023-04-03T08:07:01.995Z,10.6
2023-04-03T08:12:54.005Z,10.6
2023-04-03T08:18:31.197Z,10.2
2023-04-03T08:24:29.550Z,10.8
2023-04-03T08:30:34.520Z,10.9
2023-04-03T08:36:11.367Z,11.9
2023-04-03T08:42:03.513Z,10.9
2023-04-03T08:47:56.887Z,11
2023-04-03T08:53:54.806Z,11.3
2023-04-03T08:59:47.129Z,11.8
2023-04-03T09:05:40.783Z,12.1
2023-04-03T09:11:33.125Z,12.4
2023-04-03T09:17:39.005Z,12.6
2023-04-03T09:23:36.686Z,12.6
2023-04-03T09:29:39.617Z,12.1
2023-04-03T09:35:47.047Z,12.9
2023-04-03T09:41:24.577Z,12.6
2023-04-03T09:47:27.953Z,13.6
2023-04-03T09:53:29.354Z,13.6
2023-04-03T09:59:33.350Z,13.5
2023-04-03T10:05:41.806Z,13.8
2023-04-03T10:11:42.960Z,14
2023-04-03T10:17:47.832Z,14
2023-04-03T10:24:01.336Z,13.3
2023-04-03T10:29:55.866Z,12.8
2023-04-03T10:35:56.080Z,13.1
2023-04-03T10:41:51.474Z,12.3
2023-04-03T10:47:55.875Z,12.7
2023-04-03T10:53:40.069Z,12.8
2023-04-03T10:59:44.822Z,13.1
2023-04-03T11:05:41.262Z,12.6
2023-04-03T11:11:18.226Z,13.3
2023-04-03T11:17:07.874Z,12.3
2023-04-03T11:22:45.463Z,12.5
2023-04-03T11:28:36.945Z,11.9
2023-04-03T11:34:23.065Z,11.6
2023-04-03T11:40:16.426Z,11.1
2023-04-03T11:46:07.521Z,10.9
2023-04-03T11:52:24.827Z,10.8
2023-04-03T11:59:07.996Z,10.6
2023-04-03T12:05:54.499Z,10.4
2023-04-03T12:12:14.467Z,10.3
2023-04-03T12:18:38.724Z,10.2
2023-04-03T12:24:50.948Z,10.2
2023-04-03T12:31:07.056Z,10.2
2023-04-03T12:37:51.514Z,9.9
2023-04-03T12:44:20.879Z,9.6
2023-04-03T12:50:51.125Z,9.3
2023-04-03T12:57:00.410Z,9.1
2023-04-03T13:03:25.238Z,9
2023-04-03T13:09:51.222Z,8.8
2023-04-03T13:16:24.535Z,8.8
2023-04-03T13:22:54.419Z,8.7
2023-04-03T13:29:24.139Z,8.7
2023-04-03T13:35:15.893Z,8.6
2023-04-03T13:41:03.834Z,8.5
2023-04-03T13:46:46.857Z,8.4
2023-04-03T13:52:41.977Z,8.4
2023-04-03T13:58:30.226Z,8.3
2023-04-03T14:03:50.963Z,8.3
2023-04-03T14:09:36.088Z,8.3
2023-04-03T14:15:22.716Z,8.3
2023-04-03T14:21:07.032Z,8.3
2023-04-03T14:26:44.067Z,8.2
2023-04-03T14:32:30.924Z,8.1
2023-04-03T14:38:08.048Z,8.1
2023-04-03T14:43:51.078Z,8.1
2023-04-03T14:49:54.055Z,8.1
2023-04-03T14:55:53.259Z,8
2023-04-03T15:01:30.133Z,8
2023-04-03T15:07:10.722Z,8
2023-04-03T15:12:47.597Z,8
2023-04-03T15:18:42.513Z,7.9
2023-04-03T15:24:04.092Z,7.9
2023-04-03T15:29:24.903Z,7.9
2023-04-03T15:35:05.317Z,7.9
2023-04-03T15:41:03.796Z,7.9
2023-04-03T15:46:39.592Z,7.9
2023-04-03T15:52:15.865Z,7.8
2023-04-03T15:58:07.491Z,7.8
2023-04-03T16:03:45.271Z,7.8
2023-04-03T16:09:22.912Z,7.8
2023-04-03T16:14:59.187Z,7.8
2023-04-03T16:20:35.662Z,7.8
2023-04-03T16:26:12.675Z,7.8
2023-04-03T16:31:50.893Z,7.9
2023-04-03T16:37:48.442Z,7.8
2023-04-03T16:43:28.774Z,7.7
2023-04-03T16:49:23.988Z,7.7
2023-04-03T16:55:18.105Z,7.6
2023-04-03T17:00:59.365Z,7.6
2023-04-03T17:06:55.649Z,7.6
2023-04-03T17:12:54.625Z,7.6
2023-04-03T17:18:50.098Z,7.5
2023-04-03T17:24:44.527Z,7.5
2023-04-03T17:30:38.167Z,7.4
2023-04-03T17:36:20.751Z,7.4
2023-04-03T17:42:18.032Z,7.4
2023-04-03T17:48:16.202Z,7.4
2023-04-03T17:54:15.116Z,7.4
2023-04-03T18:00:14.980Z,7.3
2023-04-03T18:05:58.280Z,7.3
2023-04-03T18:11:58.047Z,7.3
2023-04-03T18:17:40.885Z,7.3
2023-04-03T18:23:58.721Z,7.3
2023-04-03T18:30:03.501Z,7.3
2023-04-03T18:36:04.860Z,7.3
2023-04-03T18:42:04.791Z,7.3
2023-04-03T18:47:49.787Z,7.3
2023-04-03T18:53:50.031Z,7.3
2023-04-03T18:59:50.904Z,7.1
2023-04-03T19:05:52.407Z,7.1
2023-04-03T19:11:52.761Z,7.1
2023-04-03T19:18:18.055Z,7.1
2023-04-03T19:24:18.892Z,7.1
2023-04-03T19:30:20.048Z,7.1
2023-04-03T19:36:19.502Z,7.2
2023-04-03T19:42:14.250Z,7.2
2023-04-03T19:48:18.708Z,7.1
2023-04-03T19:54:10.346Z,7.1
2023-04-03T20:06:10.138Z,7.1
2023-04-03T20:12:02.433Z,7.1
2023-04-03T20:17:55.630Z,7.1
2023-04-03T20:23:34.401Z,7.1
2023-04-03T20:30:14.048Z,7.1
2023-04-03T20:35:48.071Z,7.1
2023-04-03T20:41:42.203Z,7.1
2023-04-03T20:47:45.332Z,7.1
2023-04-03T20:53:37.710Z,7.1
2023-04-03T20:59:38.825Z,7
2023-04-03T21:05:20.662Z,7
2023-04-03T21:11:14.978Z,7
2023-04-03T21:17:06.548Z,7
2023-04-03T21:22:58.593Z,6.9
2023-04-03T21:28:50.706Z,6.9
2023-04-03T21:34:43.023Z,6.9
2023-04-03T21:40:19.202Z,6.9
2023-04-03T21:46:10.911Z,6.9
2023-04-03T21:52:04.291Z,6.9
2023-04-03T21:57:55.729Z,6.9
2023-04-03T22:04:00.370Z,7
2023-04-03T22:09:51.398Z,7
2023-04-03T22:15:28.348Z,6.9
2023-04-03T22:21:19.928Z,7
2023-04-03T22:27:11.078Z,6.9
2023-04-03T22:33:03.081Z,6.9
2023-04-03T22:38:38.843Z,6.9
2023-04-03T22:44:14.888Z,6.9
2023-04-03T22:50:11.809Z,7
2023-04-03T22:56:09.400Z,7.1
2023-04-03T23:01:46.304Z,7.1
2023-04-03T23:07:38.211Z,7.2
2023-04-03T23:13:15.082Z,7.3
2023-04-03T23:18:51.425Z,7.3
2023-04-03T23:24:43.360Z,7.3
2023-04-03T23:30:34.627Z,7.3
2023-04-03T23:36:11.460Z,7.3
2023-04-03T23:42:05.099Z,7.2
2023-04-03T23:47:41.876Z,7.1
2023-04-03T23:53:18.317Z,7.1
2023-04-03T23:59:09.708Z,7.1
